Time;durP1;ratioP1;P1;durP2;ratioP2;P2;SDS_P1;SDS_P2;PMS_P1;PMS_P2;Temp;Humidity;BMP_temperature;BMP_pressure;BME280_temperature;BME280_humidity;BME280_pressure;Samples;Min_cycle;Max_cycle;Signal;HPM_P1;HPM_P2
2021/03/07 00:00:46;;;;;;;13.53;6.80;;;;;;;-5.39;74.60;101736.41;1752140;81;21014;-44
2021/03/07 00:03:14;;;;;;;48.60;8.18;;;;;;;-5.38;74.56;101736.89;1752244;81;21070;-44
2021/03/07 00:05:42;;;;;;;29.85;7.00;;;;;;;-5.37;74.58;101738.64;1752123;81;21062;-43
2021/03/07 00:08:10;;;;;;;28.83;8.40;;;;;;;-5.36;74.68;101734.08;1752257;81;21057;-42
2021/03/07 00:10:40;;;;;;;118.60;9.70;;;;;;;-5.39;74.70;101725.91;1752131;81;20943;-45
2021/03/07 00:13:09;;;;;;;53.13;7.50;;;;;;;-5.38;74.73;101734.37;1752055;81;21082;-44
2021/03/07 00:15:37;;;;;;;39.05;7.80;;;;;;;-5.41;74.87;101731.23;1752229;81;21006;-42
2021/03/07 00:18:06;;;;;;;20.92;5.65;;;;;;;-5.40;74.94;101727.08;1752244;81;21070;-43
2021/03/07 00:20:34;;;;;;;23.10;5.80;;;;;;;-5.40;74.90;101728.34;1752199;81;21019;-42
2021/03/07 00:23:03;;;;;;;33.60;6.15;;;;;;;-5.42;74.78;101730.75;1752176;81;21230;-42
2021/03/07 00:25:31;;;;;;;39.85;6.75;;;;;;;-5.44;74.82;101732.67;1752165;81;21018;-43
2021/03/07 00:27:59;;;;;;;97.05;9.03;;;;;;;-5.47;75.04;101725.78;1752185;81;21073;-44
2021/03/07 00:30:27;;;;;;;46.90;8.28;;;;;;;-5.51;75.09;101721.31;1752179;81;21042;-44
2021/03/07 00:32:55;;;;;;;48.40;6.30;;;;;;;-5.52;75.17;101722.94;1752225;81;21022;-43
2021/03/07 00:35:23;;;;;;;36.85;7.45;;;;;;;-5.56;75.29;101713.42;1745795;81;21202;-43
2021/03/07 00:37:51;;;;;;;69.90;7.03;;;;;;;-5.56;75.32;101715.05;1743907;82;20943;-43
2021/03/07 00:40:19;;;;;;;33.90;8.03;;;;;;;-5.58;75.50;101709.92;1743992;82;21023;-43
2021/03/07 00:42:48;;;;;;;50.23;8.20;;;;;;;-5.58;75.50;101702.34;1743875;80;21047;-44
2021/03/07 00:45:18;;;;;;;52.33;7.42;;;;;;;-5.59;75.54;101708.17;1743970;82;20959;-41
2021/03/07 00:47:46;;;;;;;133.05;11.60;;;;;;;-5.57;75.65;101699.42;1743974;82;21280;-43
2021/03/07 00:50:17;;;;;;;82.45;7.45;;;;;;;-5.56;75.62;101699.54;1743947;82;21042;-44
2021/03/07 00:52:45;;;;;;;32.73;5.60;;;;;;;-5.54;75.62;101693.34;1744085;82;21023;-44
2021/03/07 00:55:13;;;;;;;77.82;8.75;;;;;;;-5.55;75.46;101694.12;1721981;82;21035;-42
2021/03/07 00:57:41;;;;;;;85.20;9.18;;;;;;;-5.57;75.54;101690.22;1743989;82;21007;-43
2021/03/07 01:00:19;;;;;;;45.55;7.35;;;;;;;-5.58;75.58;101689.73;1743925;82;21219;-42
2021/03/07 01:02:47;;;;;;;31.55;5.95;;;;;;;-5.59;75.87;101687.09;1743822;82;21011;-42
2021/03/07 01:05:16;;;;;;;64.12;7.40;;;;;;;-5.61;75.87;101679.44;1743979;82;21031;-44
2021/03/07 01:07:44;;;;;;;41.37;6.28;;;;;;;-5.63;75.92;101678.45;1743926;82;21078;-43
2021/03/07 01:10:17;;;;;;;57.88;7.17;;;;;;;-5.66;75.96;101668.16;1743931;82;21094;-43
2021/03/07 01:12:47;;;;;;;38.40;6.92;;;;;;;-5.67;76.07;101663.48;1743967;82;21268;-43
2021/03/07 01:15:19;;;;;;;26.33;5.65;;;;;;;-5.69;76.16;101666.66;1743882;82;21012;-43
2021/03/07 01:17:46;;;;;;;70.60;9.83;;;;;;;-5.74;76.18;101670.16;1743916;82;21228;-42
2021/03/07 01:20:17;;;;;;;58.58;6.95;;;;;;;-5.77;76.42;101664.91;1743969;82;21069;-43
2021/03/07 01:22:47;;;;;;;27.82;6.22;;;;;;;-5.79;76.56;101661.41;1743072;82;21046;-44
2021/03/07 01:25:18;;;;;;;26.27;6.28;;;;;;;-5.83;76.67;101661.95;1744160;82;21640;-43
2021/03/07 01:27:46;;;;;;;47.90;6.17;;;;;;;-5.86;76.80;101660.48;1744020;82;21038;-44
2021/03/07 01:30:15;;;;;;;49.55;7.25;;;;;;;-5.89;77.06;101658.66;1744006;82;21189;-43
2021/03/07 01:32:43;;;;;;;61.53;7.55;;;;;;;-5.89;77.40;101669.11;1744042;82;20960;-43
2021/03/07 01:35:13;;;;;;;104.47;8.90;;;;;;;-5.89;77.62;101664.06;1748634;81;20943;-43
2021/03/07 01:37:41;;;;;;;36.42;6.08;;;;;;;-5.91;77.70;101670.28;1752395;81;21219;-41
2021/03/07 01:40:14;;;;;;;26.23;6.10;;;;;;;-5.90;77.67;101668.25;1752263;81;21559;-42
2021/03/07 01:42:50;;;;;;;14.85;6.10;;;;;;;-5.94;77.62;101665.00;1752287;80;21022;-45
2021/03/07 01:45:22;;;;;;;28.20;5.20;;;;;;;-5.99;77.74;101658.41;1752326;81;21036;-44
2021/03/07 01:47:53;;;;;;;73.33;8.03;;;;;;;-6.01;77.97;101655.31;1752327;81;20983;-43
2021/03/07 01:50:28;;;;;;;52.55;6.90;;;;;;;-6.00;78.21;101655.77;1752248;81;21269;-42
2021/03/07 01:52:56;;;;;;;64.95;7.55;;;;;;;-6.01;78.27;101659.09;1752324;81;20979;-43
2021/03/07 01:55:30;;;;;;;43.15;8.03;;;;;;;-6.03;78.39;101653.08;1752300;81;20943;-43
2021/03/07 01:58:19;;;;;;;25.08;6.05;;;;;;;-6.08;78.44;101653.64;1752224;81;20967;-44
2021/03/07 02:00:47;;;;;;;54.53;7.90;;;;;;;-6.10;78.63;101656.45;1752319;81;20986;-43
2021/03/07 02:03:15;;;;;;;9.35;5.55;;;;;;;-6.12;78.62;101654.20;1752303;81;21396;-43
2021/03/07 02:05:44;;;;;;;40.58;7.22;;;;;;;-6.15;78.79;101648.06;1752307;81;21480;-44
2021/03/07 02:08:13;;;;;;;31.60;6.58;;;;;;;-6.16;78.85;101652.25;1752311;81;21038;-42
2021/03/07 02:10:45;;;;;;;12.47;5.33;;;;;;;-6.16;78.93;101647.58;1752274;81;21515;-44
2021/03/07 02:13:20;;;;;;;29.75;5.85;;;;;;;-6.21;79.06;101649.77;1752308;81;21026;-44
2021/03/07 02:15:54;;;;;;;26.90;6.58;;;;;;;-6.24;79.23;101648.30;1752469;81;21391;-43
2021/03/07 02:18:22;;;;;;;14.30;5.95;;;;;;;-6.24;79.23;101648.30;1752231;81;21168;-44
2021/03/07 02:20:58;;;;;;;43.38;6.97;;;;;;;-6.22;79.45;101647.66;1701262;81;21097;-44
2021/03/07 02:23:28;;;;;;;;;;;;;;;-6.22;79.51;101646.76;1754832;81;21022;-43
2021/03/07 02:25:56;;;;;;;18.92;6.17;;;;;;;-6.26;79.69;101643.17;1752395;81;20479;-44
2021/03/07 02:28:25;;;;;;;15.25;5.60;;;;;;;-6.27;79.71;101650.61;1752295;81;21279;-43
2021/03/07 02:30:54;;;;;;;22.00;5.22;;;;;;;-6.25;79.90;101642.77;1752195;81;21587;-43
2021/03/07 02:33:34;;;;;;;22.22;6.37;;;;;;;-6.21;79.93;101640.95;1752295;81;20959;-42
2021/03/07 02:36:05;;;;;;;22.05;6.03;;;;;;;-6.16;79.98;101638.38;1730268;81;20935;-43
2021/03/07 02:38:35;;;;;;;12.75;5.80;;;;;;;-6.14;80.02;101640.63;1757413;81;20982;-41
2021/03/07 02:41:03;;;;;;;16.45;5.80;;;;;;;-6.15;79.95;101638.88;1757425;81;21380;-42
2021/03/07 02:43:36;;;;;;;17.65;5.62;;;;;;;-6.15;79.95;101641.39;1757197;80;20931;-42
2021/03/07 02:46:03;;;;;;;17.95;5.47;;;;;;;-6.17;79.96;101636.63;1757465;81;21275;-43
2021/03/07 02:48:31;;;;;;;18.82;5.67;;;;;;;-6.16;80.00;101639.64;1729998;81;21014;-43
2021/03/07 02:51:00;;;;;;;9.25;5.17;;;;;;;-6.19;79.83;101638.55;1757364;81;20962;-43
2021/03/07 02:53:30;;;;;;;13.75;4.67;;;;;;;-6.23;79.98;101638.70;1757353;81;21393;-43
2021/03/07 02:56:06;;;;;;;11.08;4.70;;;;;;;-6.25;79.95;101636.47;1757229;81;21092;-43
2021/03/07 02:58:33;;;;;;;10.85;5.33;;;;;;;-6.28;79.93;101641.30;1757513;81;21097;-41
2021/03/07 03:01:04;;;;;;;14.05;5.53;;;;;;;-6.30;80.10;101637.44;1729952;81;21491;-41
2021/03/07 03:03:35;;;;;;;15.00;5.70;;;;;;;-6.37;80.05;101632.34;1757359;81;20951;-42
2021/03/07 03:06:04;;;;;;;12.55;5.58;;;;;;;-6.45;80.11;101633.84;1757411;81;22588;-43
2021/03/07 03:08:32;;;;;;;25.40;5.50;;;;;;;-6.56;80.15;101645.68;1757297;81;20915;-42
2021/03/07 03:11:00;;;;;;;11.75;5.12;;;;;;;-6.65;80.28;101632.94;1757272;81;20963;-42
2021/03/07 03:13:32;;;;;;;13.22;5.03;;;;;;;-6.72;80.24;101636.17;1757302;81;21022;-42
2021/03/07 03:16:01;;;;;;;9.43;5.15;;;;;;;-6.81;80.62;101631.35;1757433;81;21519;-43
2021/03/07 03:18:31;;;;;;;7.40;4.35;;;;;;;-6.87;80.93;101633.05;1757305;81;21574;-42
2021/03/07 03:21:06;;;;;;;7.45;3.92;;;;;;;-6.88;80.99;101631.69;1757286;81;20959;-42
2021/03/07 03:23:34;;;;;;;13.38;4.37;;;;;;;-6.83;81.22;101629.97;1757481;81;21050;-43
2021/03/07 03:26:02;;;;;;;7.10;3.72;;;;;;;-6.71;81.21;101627.84;1757303;81;20974;-42
2021/03/07 03:28:31;;;;;;;5.15;3.60;;;;;;;-6.67;81.08;101632.33;1757342;81;20971;-44
2021/03/07 03:30:59;;;;;;;7.85;3.60;;;;;;;-6.67;80.99;101621.88;1730316;81;21155;-42
2021/03/07 03:33:27;;;;;;;7.85;3.50;;;;;;;-6.68;80.96;101617.98;1757347;81;21050;-43
2021/03/07 03:35:56;;;;;;;10.23;3.00;;;;;;;-6.69;80.91;101613.34;1752712;81;21046;-44
2021/03/07 03:38:51;;;;;;;8.35;4.65;;;;;;;-6.71;80.91;101616.11;1749525;82;20987;-43
2021/03/07 03:41:22;;;;;;;7.10;4.92;;;;;;;-6.76;80.95;101614.92;1749647;82;20958;-41
2021/03/07 03:43:54;;;;;;;18.87;6.30;;;;;;;-6.80;81.09;101615.11;1749107;80;22349;-42
2021/03/07 03:46:22;;;;;;;9.30;4.75;;;;;;;-6.82;81.12;101599.02;1749625;82;20967;-43
2021/03/07 03:48:58;;;;;;;7.10;4.47;;;;;;;-6.83;81.08;101598.89;1749572;82;21058;-42
2021/03/07 03:51:26;;;;;;;;;;;;;;;-6.87;80.96;101596.92;1752185;82;21054;-41
2021/03/07 03:53:54;;;;;;;6.17;3.65;;;;;;;-6.93;80.99;101598.62;1749585;82;20166;-42
2021/03/07 03:56:23;;;;;;;8.10;4.08;;;;;;;-6.98;81.14;101595.77;1722327;82;21271;-42
2021/03/07 03:58:51;;;;;;;8.48;3.70;;;;;;;-7.01;81.10;101595.55;1749447;82;20983;-43
2021/03/07 04:01:19;;;;;;;6.95;3.67;;;;;;;-7.05;81.13;101588.55;1749521;82;20943;-44
2021/03/07 04:03:51;;;;;;;5.85;4.12;;;;;;;-7.12;81.19;101582.59;1749554;82;21042;-43
2021/03/07 04:06:24;;;;;;;6.40;3.90;;;;;;;-7.17;81.31;101581.39;1749509;82;21058;-43
2021/03/07 04:08:53;;;;;;;9.53;4.05;;;;;;;-7.26;81.38;101580.34;1749650;82;22269;-42
2021/03/07 04:11:22;;;;;;;9.78;4.12;;;;;;;-7.30;81.60;101580.89;1749444;82;20947;-44
2021/03/07 04:13:51;;;;;;;14.78;4.20;;;;;;;-7.31;81.74;101579.14;1749489;82;21046;-44
2021/03/07 04:16:19;;;;;;;14.03;4.60;;;;;;;-7.31;81.83;101572.86;1749537;82;20941;-43
2021/03/07 04:18:47;;;;;;;13.43;5.30;;;;;;;-7.31;81.91;101571.59;1749645;82;21627;-43
2021/03/07 04:21:15;;;;;;;7.50;4.42;;;;;;;-7.32;81.95;101563.16;1698887;82;21170;-43
2021/03/07 04:23:43;;;;;;;7.33;4.78;;;;;;;-7.31;82.06;101557.75;1722231;82;21078;-42
2021/03/07 04:26:11;;;;;;;11.60;4.65;;;;;;;-7.28;82.05;101549.16;1721863;82;21034;-42
2021/03/07 04:28:39;;;;;;;16.80;6.60;;;;;;;-7.30;81.93;101552.81;1749595;82;21556;-43
2021/03/07 04:31:08;;;;;;;8.03;4.83;;;;;;;-7.34;82.04;101554.98;1722460;82;21121;-45
2021/03/07 04:33:37;;;;;;;8.25;4.78;;;;;;;-7.40;82.16;101553.79;1749528;82;21208;-42
2021/03/07 04:36:06;;;;;;;8.73;5.20;;;;;;;-7.40;82.45;101556.70;1746596;82;21785;-46
2021/03/07 04:38:34;;;;;;;19.82;5.62;;;;;;;-7.39;82.40;101549.25;1743936;82;20940;-44
2021/03/07 04:41:03;;;;;;;10.68;5.05;;;;;;;-7.39;82.39;101552.16;1723115;82;20999;-42
2021/03/07 04:43:46;;;;;;;8.25;4.62;;;;;;;-7.35;82.59;101546.58;1743919;81;21076;-44
2021/03/07 04:46:16;;;;;;;8.43;4.65;;;;;;;-7.30;82.60;101545.66;1743841;82;21215;-43
2021/03/07 04:48:45;;;;;;;10.63;4.85;;;;;;;-7.21;82.53;101545.05;1743901;82;21117;-43
2021/03/07 04:51:13;;;;;;;10.03;4.90;;;;;;;-7.14;82.39;101542.19;1743909;82;21050;-42
2021/03/07 04:53:41;;;;;;;10.98;5.05;;;;;;;-7.10;82.38;101529.45;1743919;82;21206;-42
2021/03/07 04:56:09;;;;;;;6.65;4.37;;;;;;;-6.99;82.38;101536.10;1744155;82;21580;-42
2021/03/07 04:58:37;;;;;;;7.78;4.35;;;;;;;-6.82;82.23;101528.49;1744118;82;21285;-42
2021/03/07 05:01:05;;;;;;;5.25;3.83;;;;;;;-6.64;82.05;101529.25;1743995;82;20967;-42
2021/03/07 05:03:34;;;;;;;13.68;4.70;;;;;;;-6.47;81.70;101524.09;1744105;82;21039;-43
2021/03/07 05:06:02;;;;;;;12.50;4.83;;;;;;;-6.28;81.65;101531.65;1744114;82;20963;-44
2021/03/07 05:08:32;;;;;;;8.35;4.45;;;;;;;-6.09;81.32;101528.70;1744031;82;20955;-44
2021/03/07 05:11:00;;;;;;;8.33;4.22;;;;;;;-5.92;80.96;101529.41;1744115;82;21445;-43
2021/03/07 05:13:28;;;;;;;8.45;4.40;;;;;;;-5.80;80.03;101517.99;1744004;82;21046;-44
2021/03/07 05:15:56;;;;;;;9.15;4.53;;;;;;;-5.66;79.64;101517.63;1744058;82;21511;-44
2021/03/07 05:18:25;;;;;;;6.03;4.05;;;;;;;-5.55;79.33;101518.31;1744007;82;21035;-43
2021/03/07 05:20:54;;;;;;;7.85;3.92;;;;;;;-5.49;78.56;101525.42;1744101;82;20988;-43
2021/03/07 05:23:22;;;;;;;7.22;3.87;;;;;;;-5.39;78.69;101525.63;1744214;82;22126;-44
2021/03/07 05:25:50;;;;;;;6.10;3.80;;;;;;;-5.34;78.16;101524.25;1744027;82;21042;-41
2021/03/07 05:28:19;;;;;;;5.50;3.87;;;;;;;-5.25;77.22;101520.19;1744098;82;21086;-43
2021/03/07 05:30:47;;;;;;;12.73;3.62;;;;;;;-5.12;76.13;101525.20;1744012;82;21046;-44
2021/03/07 05:33:16;;;;;;;19.07;3.67;;;;;;;-5.00;75.15;101517.93;1744185;82;21046;-43
2021/03/07 05:35:45;;;;;;;7.37;3.45;;;;;;;-4.86;73.58;101526.36;1744027;82;22357;-42
2021/03/07 05:38:12;;;;;;;5.60;3.27;;;;;;;-4.76;73.04;101527.39;1744103;82;21046;-41
2021/03/07 05:40:41;;;;;;;6.85;3.85;;;;;;;-4.66;72.88;101522.52;1744138;82;20955;-44
2021/03/07 05:43:09;;;;;;;6.12;3.12;;;;;;;-4.57;72.29;101519.27;1744038;80;21058;-42
2021/03/07 05:45:37;;;;;;;7.83;3.60;;;;;;;-4.47;71.53;101528.28;1744090;82;21030;-42
2021/03/07 05:48:06;;;;;;;5.95;4.05;;;;;;;-4.35;70.88;101529.41;1744132;82;21368;-44
2021/03/07 05:50:34;;;;;;;17.57;4.08;;;;;;;-4.31;70.98;101538.06;1744060;82;21019;-42
2021/03/07 05:53:02;;;;;;;9.73;3.75;;;;;;;-4.22;70.29;101521.78;1722613;82;20964;-42
2021/03/07 05:55:30;;;;;;;6.90;3.72;;;;;;;-4.17;70.29;101522.03;1744026;82;21030;-43
2021/03/07 05:58:00;;;;;;;24.43;4.65;;;;;;;-4.10;70.16;101519.10;1744109;82;20959;-42
2021/03/07 06:00:28;;;;;;;4.67;3.15;;;;;;;-4.02;69.77;101508.55;1744040;82;21214;-43
2021/03/07 06:02:56;;;;;;;6.95;4.15;;;;;;;-4.04;69.38;101506.80;1743987;82;21006;-43
2021/03/07 06:05:24;;;;;;;8.88;3.80;;;;;;;-4.02;69.55;101508.17;1744018;82;21031;-42
2021/03/07 06:07:52;;;;;;;3.65;3.27;;;;;;;-3.98;69.80;101506.30;1744118;82;21014;-43
2021/03/07 06:10:26;;;;;;;7.10;3.77;;;;;;;-3.90;70.23;101512.66;1744105;82;20963;-42
2021/03/07 06:13:04;;;;;;;4.58;3.27;;;;;;;-3.75;69.94;101500.00;1743773;82;21338;-42
2021/03/07 06:15:34;;;;;;;12.18;3.95;;;;;;;-3.66;68.95;101493.73;1740997;82;21034;-42
2021/03/07 06:18:02;;;;;;;9.98;3.50;;;;;;;-3.56;67.98;101498.90;1744083;82;20943;-43
2021/03/07 06:20:31;;;;;;;14.68;4.15;;;;;;;-3.55;68.20;101485.45;1722455;82;20971;-42
2021/03/07 06:23:02;;;;;;;7.60;4.50;;;;;;;-3.50;67.82;101497.59;1744086;82;20924;-41
2021/03/07 06:25:30;;;;;;;5.67;4.10;;;;;;;-3.48;68.40;101493.48;1744067;82;21397;-43
2021/03/07 06:27:59;;;;;;;9.40;5.03;;;;;;;-3.38;68.48;101482.20;1743957;82;20987;-42
2021/03/07 06:30:31;;;;;;;9.55;4.20;;;;;;;-3.32;68.23;101485.06;1743999;82;21031;-44
2021/03/07 06:33:00;;;;;;;7.83;4.10;;;;;;;-3.20;67.73;101478.53;1743785;82;20944;-44
2021/03/07 06:35:32;;;;;;;4.58;3.70;;;;;;;-3.13;68.14;101472.55;1744100;82;22324;-41
2021/03/07 06:38:06;;;;;;;10.88;4.40;;;;;;;-3.04;67.53;101470.09;1744020;82;21398;-43
2021/03/07 06:40:43;;;;;;;4.05;3.30;;;;;;;-2.94;67.00;101464.26;1744188;82;21568;-42
2021/03/07 06:43:25;;;;;;;9.75;3.80;;;;;;;-2.87;65.92;101461.66;1744023;81;21176;-41
2021/03/07 06:45:55;;;;;;;15.48;4.12;;;;;;;-2.83;66.64;101463.56;1740891;82;20967;-43
2021/03/07 06:48:35;;;;;;;10.82;4.37;;;;;;;-2.75;64.92;101457.22;1744038;82;21006;-42
2021/03/07 06:51:04;;;;;;;7.17;4.15;;;;;;;-2.71;65.26;101464.19;1744053;82;21212;-42
2021/03/07 06:53:36;;;;;;;23.75;4.62;;;;;;;-2.64;65.36;101453.59;1744008;82;21014;-42
2021/03/07 06:56:05;;;;;;;9.18;4.22;;;;;;;-2.56;65.23;101458.18;1744012;82;21664;-43
2021/03/07 06:58:33;;;;;;;7.85;4.30;;;;;;;-2.50;64.92;101447.08;1743958;82;21121;-43
2021/03/07 07:01:01;;;;;;;37.80;4.35;;;;;;;-2.41;65.00;101444.14;1744061;82;21038;-42
2021/03/07 07:03:31;;;;;;;7.83;5.20;;;;;;;-2.33;63.18;101434.86;1744043;82;21265;-41
2021/03/07 07:05:59;;;;;;;189.60;10.85;;;;;;;-2.30;64.11;101436.66;1743855;82;21034;-43
2021/03/07 07:08:46;;;;;;;49.00;5.55;;;;;;;-2.17;62.41;101434.33;1744037;82;21077;-43
2021/03/07 07:11:14;;;;;;;8.80;3.90;;;;;;;-2.22;62.95;101429.43;1744088;82;21616;-43
2021/03/07 07:13:46;;;;;;;403.52;16.35;;;;;;;-2.15;62.95;101428.93;1744030;82;21070;-41
2021/03/07 07:16:15;;;;;;;8.58;4.10;;;;;;;-2.03;61.36;101410.52;1741984;82;21317;-44
2021/03/07 07:18:45;;;;;;;15.78;4.62;;;;;;;-2.04;62.13;101411.31;1743929;82;21098;-43
2021/03/07 07:21:14;;;;;;;68.85;5.80;;;;;;;-2.01;62.27;101411.88;1744024;82;21085;-43
2021/03/07 07:23:42;;;;;;;15.83;3.77;;;;;;;-1.91;62.38;101409.34;1744037;82;21011;-45
2021/03/07 07:26:10;;;;;;;11.88;4.03;;;;;;;-1.75;61.28;101402.95;1744054;82;21026;-42
2021/03/07 07:28:39;;;;;;;7.35;3.80;;;;;;;-1.74;61.35;101393.26;1743942;82;21035;-44
2021/03/07 07:31:12;;;;;;;10.65;4.15;;;;;;;-1.63;60.36;101385.29;1743971;82;21022;-45
2021/03/07 07:33:52;;;;;;;134.45;8.45;;;;;;;-1.67;60.90;101378.30;1743951;82;21018;-43
2021/03/07 07:36:40;;;;;;;15.40;3.67;;;;;;;-1.57;59.45;101370.33;1744845;82;21002;-43
2021/03/07 07:39:11;;;;;;;22.95;3.80;;;;;;;-1.54;59.53;101361.96;1749537;82;20939;-43
2021/03/07 07:41:40;;;;;;;479.77;21.48;;;;;;;-1.53;59.13;101349.34;1749561;82;21138;-43
2021/03/07 07:44:11;;;;;;;5.80;3.17;;;;;;;-1.63;58.43;101345.52;1749458;80;20958;-43
2021/03/07 07:47:04;;;;;;;19.92;3.50;;;;;;;-1.58;58.87;101354.63;1747226;82;21026;-45
2021/03/07 07:49:40;;;;;;;11.38;3.70;;;;;;;-1.52;59.03;101341.31;1749595;82;21002;-42
2021/03/07 07:52:30;;;;;;;;;;;;;;;-1.40;59.25;101334.64;1752187;82;21094;-43
2021/03/07 07:55:07;;;;;;;8.55;3.92;;;;;;;-1.20;59.31;101338.09;1749559;82;22282;-44
2021/03/07 07:57:41;;;;;;;12.65;4.35;;;;;;;-1.11;58.94;101337.63;1749607;82;21572;-43
2021/03/07 08:00:22;;;;;;;7.00;3.50;;;;;;;-0.97;58.20;101330.59;1749839;82;21141;-42
2021/03/07 08:02:52;;;;;;;10.60;4.05;;;;;;;-0.94;57.64;101331.58;1749487;82;20971;-42
2021/03/07 08:05:27;;;;;;;8.88;4.40;;;;;;;-0.93;57.92;101337.12;1749576;82;21575;-42
2021/03/07 08:08:09;;;;;;;7.80;4.12;;;;;;;-0.72;56.83;101335.03;1749583;82;21218;-44
2021/03/07 08:10:49;;;;;;;4.83;3.27;;;;;;;-0.73;57.62;101334.56;1749484;82;21559;-44
2021/03/07 08:13:37;;;;;;;374.67;20.60;;;;;;;-0.57;56.65;101331.41;1749691;82;20994;-43
2021/03/07 08:16:07;;;;;;;14.15;3.20;;;;;;;-0.34;54.50;101319.61;1749390;82;21042;-43
2021/03/07 08:18:55;;;;;;;25.50;3.72;;;;;;;-0.26;54.38;101310.59;1749579;82;20951;-45
2021/03/07 08:21:24;;;;;;;47.67;5.28;;;;;;;-0.09;52.83;101303.64;1749487;82;21450;-44
2021/03/07 08:24:05;;;;;;;32.80;4.20;;;;;;;-0.11;51.90;101297.63;1749519;82;20953;-45
2021/03/07 08:26:48;;;;;;;8.33;3.67;;;;;;;-0.35;52.15;101303.48;1749609;82;21152;-42
2021/03/07 08:29:39;;;;;;;8.88;3.95;;;;;;;-0.40;52.52;101287.14;1749443;82;21069;-44
2021/03/07 08:32:26;;;;;;;6.95;3.60;;;;;;;-0.33;53.03;101295.50;1749518;81;21019;-43
2021/03/07 08:35:15;;;;;;;9.13;4.58;;;;;;;-0.35;52.40;101281.86;1744209;82;21365;-44
2021/03/07 08:38:08;;;;;;;6.25;4.08;;;;;;;-0.37;53.81;101292.38;1750964;81;21034;-43
2021/03/07 08:40:37;;;;;;;8.93;4.20;;;;;;;-0.17;53.74;101285.91;1752167;81;21006;-43
2021/03/07 08:43:30;;;;;;;8.13;4.03;;;;;;;-0.02;53.66;101285.23;1752243;80;21009;-45
2021/03/07 08:46:11;;;;;;;9.30;4.15;;;;;;;-0.02;52.71;101282.69;1752220;81;20943;-44
2021/03/07 08:48:44;;;;;;;6.10;4.15;;;;;;;-0.03;53.11;101276.26;1752239;82;22272;-44
2021/03/07 08:53:29;;;;;;;11.83;4.28;;;;;;;0.04;52.94;101274.43;1815919;78;22533;-43
2021/03/07 08:55:58;;;;;;;7.45;4.47;;;;;;;0.04;52.55;101277.37;1789049;80;21599;-45
2021/03/07 08:58:26;;;;;;;370.35;18.50;;;;;;;0.17;52.81;101263.03;1788934;80;21293;-44
2021/03/07 09:00:55;;;;;;;31.52;5.45;;;;;;;0.20;51.88;101259.70;1788896;80;20954;-42
2021/03/07 09:03:26;;;;;;;17.52;4.42;;;;;;;0.25;51.89;101248.88;1788980;80;20924;-43
2021/03/07 09:05:55;;;;;;;8.20;4.00;;;;;;;0.17;52.03;101245.20;1788915;80;20936;-45
2021/03/07 09:08:26;;;;;;;15.08;5.58;;;;;;;0.00;52.87;101257.30;1789024;80;20990;-43
2021/03/07 09:10:59;;;;;;;8.83;4.67;;;;;;;0.04;52.54;101231.53;1788954;80;21200;-45
2021/03/07 09:13:28;;;;;;;35.05;5.30;;;;;;;0.11;52.99;101240.73;1788888;80;21045;-44
2021/03/07 09:16:01;;;;;;;54.58;5.78;;;;;;;0.14;52.08;101225.99;1788917;80;21282;-43
2021/03/07 09:18:35;;;;;;;28.07;5.47;;;;;;;0.13;51.95;101220.44;1788881;80;21025;-45
2021/03/07 09:21:11;;;;;;;15.90;5.92;;;;;;;0.08;53.25;101225.74;1785796;80;21042;-42
2021/03/07 09:23:41;;;;;;;12.10;5.00;;;;;;;0.11;53.10;101225.46;1788838;80;21260;-48
2021/03/07 09:26:19;;;;;;;21.02;5.20;;;;;;;0.04;54.23;101225.17;1788940;80;21022;-44
2021/03/07 09:28:52;;;;;;;14.68;5.67;;;;;;;0.05;53.68;101209.97;1788837;80;21026;-44
2021/03/07 09:31:22;;;;;;;14.70;6.03;;;;;;;0.09;53.86;101202.02;1788880;80;21559;-45
2021/03/07 09:33:56;;;;;;;16.52;5.78;;;;;;;0.14;54.72;101204.34;1787264;80;20931;-43
2021/03/07 09:36:25;;;;;;;21.68;6.28;;;;;;;0.25;53.98;101195.79;1788945;80;21385;-45
2021/03/07 09:39:01;;;;;;;14.28;6.03;;;;;;;0.33;54.12;101190.58;1788955;80;21580;-43
2021/03/07 09:41:37;;;;;;;;;;;;;;;0.27;54.18;101182.73;1791611;80;20943;-43
2021/03/07 09:44:17;;;;;;;21.73;7.20;;;;;;;0.33;54.33;101166.78;1762177;80;20138;-45
2021/03/07 09:46:47;;;;;;;26.73;6.10;;;;;;;0.44;53.84;101159.12;1757731;81;20978;-45
2021/03/07 09:49:21;;;;;;;23.87;6.42;;;;;;;0.55;54.25;101146.75;1757728;81;21381;-45
2021/03/07 09:51:50;;;;;;;17.27;6.20;;;;;;;0.61;53.69;101163.51;1755840;81;20998;-43
2021/03/07 09:54:18;;;;;;;15.88;6.83;;;;;;;0.52;54.02;101171.70;1750244;82;21061;-44
2021/03/07 09:56:47;;;;;;;17.95;6.15;;;;;;;0.47;54.33;101161.77;1750192;82;21006;-42
2021/03/07 09:59:17;;;;;;;31.68;7.20;;;;;;;0.44;54.85;101146.38;1750241;82;20908;-45
2021/03/07 10:01:52;;;;;;;21.42;6.33;;;;;;;0.55;54.51;101146.32;1750213;82;22303;-42
2021/03/07 10:04:37;;;;;;;70.03;8.03;;;;;;;0.62;54.66;101146.13;1749704;82;21030;-43
2021/03/07 10:07:21;;;;;;;;;;;;;;;0.75;54.91;101152.50;1752208;82;20998;-43
2021/03/07 10:10:25;;;;;;;22.05;6.75;;;;;;;0.76;55.62;101141.87;1749699;82;20142;-43
2021/03/07 10:12:58;;;;;;;27.22;6.37;;;;;;;0.80;55.35;101136.94;1749774;82;21034;-43
2021/03/07 10:15:39;;;;;;;15.00;6.87;;;;;;;0.95;54.48;101127.64;1749701;82;21373;-44
2021/03/07 10:18:16;;;;;;;31.33;7.28;;;;;;;0.98;55.71;101140.91;1749239;82;20996;-44
2021/03/07 10:20:50;;;;;;;32.50;7.10;;;;;;;1.09;54.89;101124.67;1749638;82;21038;-44
2021/03/07 10:23:18;;;;;;;12.37;6.85;;;;;;;1.05;54.91;101131.36;1749727;82;20955;-42
2021/03/07 10:25:49;;;;;;;16.05;6.75;;;;;;;1.06;55.42;101131.81;1749639;82;20994;-42
2021/03/07 10:28:24;;;;;;;16.62;7.72;;;;;;;1.06;55.75;101113.11;1746763;82;21388;-43
2021/03/07 10:30:53;;;;;;;25.62;7.97;;;;;;;1.00;56.34;101108.25;1749553;82;21579;-44
2021/03/07 10:33:30;;;;;;;10.48;6.85;;;;;;;1.07;55.89;101108.04;1749593;82;20959;-45
2021/03/07 10:36:17;;;;;;;24.23;8.10;;;;;;;1.19;55.79;101106.28;1749536;82;21129;-44
2021/03/07 10:38:52;;;;;;;21.10;7.43;;;;;;;1.14;56.47;101091.25;1749885;82;21029;-44
2021/03/07 10:41:31;;;;;;;39.33;7.43;;;;;;;1.21;57.29;101089.76;1722770;82;21567;-44
2021/03/07 10:44:04;;;;;;;21.52;7.85;;;;;;;1.41;56.23;101081.02;1749615;80;21489;-45
2021/03/07 10:46:44;;;;;;;18.10;6.97;;;;;;;1.45;56.43;101078.55;1749614;82;20939;-43
2021/03/07 10:49:14;;;;;;;26.75;7.53;;;;;;;1.56;56.30;101060.57;1747715;82;21019;-45
2021/03/07 10:51:44;;;;;;;18.27;6.80;;;;;;;1.65;55.39;101046.81;1749327;81;20959;-45
2021/03/07 10:54:12;;;;;;;16.65;7.40;;;;;;;1.67;55.10;101048.99;1744034;82;21406;-45
2021/03/07 10:56:43;;;;;;;14.03;6.80;;;;;;;1.77;55.35;101044.13;1744023;82;21098;-42
2021/03/07 10:59:10;;;;;;;11.73;6.70;;;;;;;1.89;54.98;101035.94;1744029;82;21197;-44
2021/03/07 11:01:39;;;;;;;18.48;7.55;;;;;;;2.05;53.34;101028.25;1743993;82;21054;-44
2021/03/07 11:04:08;;;;;;;10.80;6.12;;;;;;;1.96;54.15;101039.97;1744010;82;20939;-43
2021/03/07 11:06:36;;;;;;;13.20;6.87;;;;;;;1.94;53.70;101017.36;1744087;82;21200;-45
2021/03/07 11:09:06;;;;;;;15.78;7.03;;;;;;;1.98;54.35;101015.34;1743998;82;21608;-43
2021/03/07 11:11:34;;;;;;;15.53;7.20;;;;;;;2.12;53.47;101015.69;1743937;82;21020;-44
2021/03/07 11:14:03;;;;;;;16.17;6.97;;;;;;;2.14;53.45;101018.27;1743974;82;20951;-45
2021/03/07 11:16:31;;;;;;;33.92;9.23;;;;;;;2.14;54.45;101010.59;1744063;82;20928;-45
2021/03/07 11:19:01;;;;;;;23.52;7.78;;;;;;;2.24;53.04;100992.14;1741269;82;21377;-45
2021/03/07 11:21:29;;;;;;;26.25;8.35;;;;;;;2.15;54.22;101002.14;1744107;82;21586;-47
2021/03/07 11:23:57;;;;;;;20.88;6.97;;;;;;;2.08;53.76;100977.25;1744096;82;21105;-43
2021/03/07 11:26:25;;;;;;;19.75;7.70;;;;;;;2.06;53.53;100959.34;1744011;82;20908;-43
2021/03/07 11:28:53;;;;;;;21.55;8.50;;;;;;;1.99;55.19;100971.09;1744081;82;21039;-43
2021/03/07 11:31:21;;;;;;;18.82;7.80;;;;;;;2.07;54.15;100940.64;1744044;82;21528;-44
2021/03/07 11:33:49;;;;;;;22.85;7.45;;;;;;;2.00;55.25;100961.73;1743980;82;21026;-47
2021/03/07 11:36:17;;;;;;;20.92;7.60;;;;;;;2.14;54.14;100953.13;1744012;82;21066;-44
2021/03/07 11:38:45;;;;;;;17.20;8.38;;;;;;;2.11;54.40;100934.78;1743997;82;20955;-44
2021/03/07 11:41:13;;;;;;;16.00;7.70;;;;;;;2.04;54.48;100938.42;1744098;82;21122;-43
2021/03/07 11:43:40;;;;;;;17.98;8.15;;;;;;;2.10;55.20;100939.83;1744068;81;21394;-43